Lafayette, CO (80026)

6:09 PM MDT on September 03, 2015 (GMT -0600)
Old Town | | Change Station
CLOSE
Current Station
Personal Weather Station
Location: Lafayette, CO
Elevation: 5246 ft
Nearby Weather Stations

Elev 5246 ft 39.99 °N, 105.09 °W | Updated 14 seconds ago

Overcast
Overcast
66.2 °F
Feels Like 66.2 °F
N
0.2
Wind Variable Wind from ESE
Gusts 2.5 mph

Today
High -- | Low -- °F
--% Chance of Precip.
Yesterday
High -- | Low -- °F
Precip. -- in
6:29 AM 7:28 PM
Waning Gibbous, 65% visible
Pressure 30.02 in
Visibility 10.0 miles
Clouds Scattered Clouds 3400 ft
Mostly Cloudy 8000 ft
Overcast 10000 ft
Dew Point 59 °F
Humidity 77%
Rainfall 0.02 in
Snow Depth Not available.
UV 1.0 out of 12
Pollen 10.20 out of 12
Air Quality Not available.
Flu Activity Not available.
METAR KEIK 032355Z AUTO 18004KT 10SM -RA SCT034 BKN080 OVC100 19/14 A3002 RMK AO2 LTG DSNT NE T01880137 10305 20188
Pressure 30.02 in
Visibility 10.0 miles
Clouds Scattered Clouds 3400 ft
Mostly Cloudy 8000 ft
Overcast 10000 ft
Dew Point 59 °F
Humidity 77%
Rainfall 0.02 in
Snow Depth Not available.
UV 1.0 out of 12
Pollen 10.20 out of 12
Air Quality Not available.
Flu Activity Not available.
METAR KEIK 032355Z AUTO 18004KT 10SM -RA SCT034 BKN080 OVC100 19/14 A3002 RMK AO2 LTG DSNT NE T01880137 10305 20188

10-Day Weather Forecast

×

Almanac

Astronomy

Sep. 03, 2015 Rise Set
Actual Time
Civil Twilight
Nautical Twilight
Astronomical Twilight
Moon
Length of Visible Light
Length of Day
Tomorrow will be .
, % of the Moon is Illuminated

Today's Extremes

State Highs State Lows

Community

WunderPhotos

Upload Photos

1,852,069 photos uploaded!

WunderBlogs® & News

Nearby

Air Quality

  Air Quality AQ Index Pollutant
Not available.

Snow Depth

Station Depth Elevation

Earthquake Activity

City Distance Mag. Time & Date
Minimum magnitude displayed is 2.5.

Coastal Water Temperatures

Place Temperature

Stations

Nearby Weather Stations

Station Location Temp. Windchill Dew Point Humidity Wind Precip. Elev Updated Type